sensor_id;sensor_type;location;lat;lon;timestamp;temperature;humidity
65584;DHT22;62116;43.582;1.470;2023-01-19T00:01:22;4.80;78.75
65584;DHT22;62116;43.582;1.470;2023-01-19T00:03:47;4.78;79.29
65584;DHT22;62116;43.582;1.470;2023-01-19T00:06:13;4.77;79.20
65584;DHT22;62116;43.582;1.470;2023-01-19T00:08:38;4.77;79.13
65584;DHT22;62116;43.582;1.470;2023-01-19T00:11:04;4.74;79.92
65584;DHT22;62116;43.582;1.470;2023-01-19T00:13:30;4.80;79.51
65584;DHT22;62116;43.582;1.470;2023-01-19T00:15:56;4.81;79.24
65584;DHT22;62116;43.582;1.470;2023-01-19T00:18:21;4.77;79.22
65584;DHT22;62116;43.582;1.470;2023-01-19T00:20:47;4.80;78.62
65584;DHT22;62116;43.582;1.470;2023-01-19T00:23:14;4.80;78.84
65584;DHT22;62116;43.582;1.470;2023-01-19T00:25:39;4.80;78.69
65584;DHT22;62116;43.582;1.470;2023-01-19T00:28:13;4.83;78.61
65584;DHT22;62116;43.582;1.470;2023-01-19T00:30:39;4.81;78.34
65584;DHT22;62116;43.582;1.470;2023-01-19T00:33:04;4.83;78.54
65584;DHT22;62116;43.582;1.470;2023-01-19T00:35:30;4.83;78.73
65584;DHT22;62116;43.582;1.470;2023-01-19T00:37:56;4.83;79.57
65584;DHT22;62116;43.582;1.470;2023-01-19T00:40:22;4.84;79.50
65584;DHT22;62116;43.582;1.470;2023-01-19T00:42:48;4.87;79.22
65584;DHT22;62116;43.582;1.470;2023-01-19T00:45:18;4.88;79.26
65584;DHT22;62116;43.582;1.470;2023-01-19T00:47:44;4.84;79.01
65584;DHT22;62116;43.582;1.470;2023-01-19T00:50:11;4.83;79.43
65584;DHT22;62116;43.582;1.470;2023-01-19T00:52:38;4.84;79.83
65584;DHT22;62116;43.582;1.470;2023-01-19T00:55:08;4.84;79.89
65584;DHT22;62116;43.582;1.470;2023-01-19T00:57:34;4.87;80.03
65584;DHT22;62116;43.582;1.470;2023-01-19T00:59:59;4.89;79.86
65584;DHT22;62116;43.582;1.470;2023-01-19T01:02:26;4.91;79.72
65584;DHT22;62116;43.582;1.470;2023-01-19T01:04:51;4.94;79.74
65584;DHT22;62116;43.582;1.470;2023-01-19T01:07:20;4.92;79.71
65584;DHT22;62116;43.582;1.470;2023-01-19T01:09:46;4.98;79.80
65584;DHT22;62116;43.582;1.470;2023-01-19T01:12:11;4.95;80.06
65584;DHT22;62116;43.582;1.470;2023-01-19T01:14:37;4.92;80.15
65584;DHT22;62116;43.582;1.470;2023-01-19T01:17:02;4.98;79.85
65584;DHT22;62116;43.582;1.470;2023-01-19T01:19:27;4.95;80.10
65584;DHT22;62116;43.582;1.470;2023-01-19T01:21:53;4.95;80.01
65584;DHT22;62116;43.582;1.470;2023-01-19T01:24:19;4.94;80.59
65584;DHT22;62116;43.582;1.470;2023-01-19T01:26:45;4.95;80.29
65584;DHT22;62116;43.582;1.470;2023-01-19T01:29:10;4.95;80.06
65584;DHT22;62116;43.582;1.470;2023-01-19T01:31:36;4.95;80.15
65584;DHT22;62116;43.582;1.470;2023-01-19T01:34:01;4.91;80.41
65584;DHT22;62116;43.582;1.470;2023-01-19T01:36:27;4.95;80.39
65584;DHT22;62116;43.582;1.470;2023-01-19T01:38:56;4.94;80.72
65584;DHT22;62116;43.582;1.470;2023-01-19T01:41:21;4.94;80.52
65584;DHT22;62116;43.582;1.470;2023-01-19T01:43:48;4.94;80.25
65584;DHT22;62116;43.582;1.470;2023-01-19T01:46:15;4.88;80.28
65584;DHT22;62116;43.582;1.470;2023-01-19T01:56:46;4.94;80.38
65584;DHT22;62116;43.582;1.470;2023-01-19T01:59:16;4.94;80.56
65584;DHT22;62116;43.582;1.470;2023-01-19T02:01:51;4.95;80.57
65584;DHT22;62116;43.582;1.470;2023-01-19T02:04:36;4.96;80.61
65584;DHT22;62116;43.582;1.470;2023-01-19T02:07:02;4.96;80.86
65584;DHT22;62116;43.582;1.470;2023-01-19T02:09:46;4.95;80.63
65584;DHT22;62116;43.582;1.470;2023-01-19T02:12:30;4.94;80.97
65584;DHT22;62116;43.582;1.470;2023-01-19T02:15:18;4.98;80.77
65584;DHT22;62116;43.582;1.470;2023-01-19T02:17:45;4.98;80.59
65584;DHT22;62116;43.582;1.470;2023-01-19T02:20:11;5.01;80.56
65584;DHT22;62116;43.582;1.470;2023-01-19T02:22:45;4.99;80.53
65584;DHT22;62116;43.582;1.470;2023-01-19T02:25:12;5.02;80.53
65584;DHT22;62116;43.582;1.470;2023-01-19T02:27:38;5.04;80.95
65584;DHT22;62116;43.582;1.470;2023-01-19T02:30:04;5.01;80.28
65584;DHT22;62116;43.582;1.470;2023-01-19T02:32:30;5.01;80.21
65584;DHT22;62116;43.582;1.470;2023-01-19T02:34:55;4.95;80.28
65584;DHT22;62116;43.582;1.470;2023-01-19T02:37:21;4.92;80.34
65584;DHT22;62116;43.582;1.470;2023-01-19T02:39:50;4.94;80.47
65584;DHT22;62116;43.582;1.470;2023-01-19T02:42:20;4.92;80.24
65584;DHT22;62116;43.582;1.470;2023-01-19T02:44:48;4.92;80.18
65584;DHT22;62116;43.582;1.470;2023-01-19T02:47:14;4.89;80.14
65584;DHT22;62116;43.582;1.470;2023-01-19T02:49:40;4.88;80.40
65584;DHT22;62116;43.582;1.470;2023-01-19T02:52:07;4.89;80.55
65584;DHT22;62116;43.582;1.470;2023-01-19T02:57:46;4.87;80.06
65584;DHT22;62116;43.582;1.470;2023-01-19T03:08:22;4.85;80.05
65584;DHT22;62116;43.582;1.470;2023-01-19T03:10:59;4.84;80.30
65584;DHT22;62116;43.582;1.470;2023-01-19T03:13:40;4.85;80.51
65584;DHT22;62116;43.582;1.470;2023-01-19T03:18:48;4.83;80.10
65584;DHT22;62116;43.582;1.470;2023-01-19T03:21:16;4.85;80.42
65584;DHT22;62116;43.582;1.470;2023-01-19T03:23:44;4.88;80.26
65584;DHT22;62116;43.582;1.470;2023-01-19T03:26:15;4.87;80.30
65584;DHT22;62116;43.582;1.470;2023-01-19T03:28:43;4.91;80.29
65584;DHT22;62116;43.582;1.470;2023-01-19T03:31:14;4.91;80.34
65584;DHT22;62116;43.582;1.470;2023-01-19T03:33:44;4.92;80.30
65584;DHT22;62116;43.582;1.470;2023-01-19T03:36:16;4.95;79.98
65584;DHT22;62116;43.582;1.470;2023-01-19T03:38:45;4.89;80.12
65584;DHT22;62116;43.582;1.470;2023-01-19T03:41:13;4.88;80.50
65584;DHT22;62116;43.582;1.470;2023-01-19T03:43:41;4.91;80.30
65584;DHT22;62116;43.582;1.470;2023-01-19T03:46:08;4.89;80.31
65584;DHT22;62116;43.582;1.470;2023-01-19T03:48:35;4.92;80.48
65584;DHT22;62116;43.582;1.470;2023-01-19T03:51:06;4.91;80.22
65584;DHT22;62116;43.582;1.470;2023-01-19T03:53:32;4.94;80.37
65584;DHT22;62116;43.582;1.470;2023-01-19T03:55:58;4.89;80.38
65584;DHT22;62116;43.582;1.470;2023-01-19T03:58:24;4.92;80.58
65584;DHT22;62116;43.582;1.470;2023-01-19T04:00:49;4.89;80.33
65584;DHT22;62116;43.582;1.470;2023-01-19T04:03:16;4.87;80.42
65584;DHT22;62116;43.582;1.470;2023-01-19T04:05:43;4.91;80.27
65584;DHT22;62116;43.582;1.470;2023-01-19T04:08:08;4.88;80.24
65584;DHT22;62116;43.582;1.470;2023-01-19T04:10:35;4.85;80.46
65584;DHT22;62116;43.582;1.470;2023-01-19T04:13:01;4.91;80.33
65584;DHT22;62116;43.582;1.470;2023-01-19T04:15:28;4.89;80.48
65584;DHT22;62116;43.582;1.470;2023-01-19T04:17:56;4.87;80.65
65584;DHT22;62116;43.582;1.470;2023-01-19T04:20:21;4.89;80.34
65584;DHT22;62116;43.582;1.470;2023-01-19T04:22:47;4.89;80.31
65584;DHT22;62116;43.582;1.470;2023-01-19T04:25:14;4.89;80.40
65584;DHT22;62116;43.582;1.470;2023-01-19T04:27:39;4.85;80.33
65584;DHT22;62116;43.582;1.470;2023-01-19T04:30:05;4.89;80.22
65584;DHT22;62116;43.582;1.470;2023-01-19T04:32:31;4.85;79.69
65584;DHT22;62116;43.582;1.470;2023-01-19T04:34:57;4.81;79.93
65584;DHT22;62116;43.582;1.470;2023-01-19T04:37:22;4.81;79.90
65584;DHT22;62116;43.582;1.470;2023-01-19T04:39:48;4.81;79.98
65584;DHT22;62116;43.582;1.470;2023-01-19T04:42:13;4.84;79.81
65584;DHT22;62116;43.582;1.470;2023-01-19T04:44:39;4.83;79.83
65584;DHT22;62116;43.582;1.470;2023-01-19T04:47:04;4.85;79.84
65584;DHT22;62116;43.582;1.470;2023-01-19T04:49:30;4.84;79.82
65584;DHT22;62116;43.582;1.470;2023-01-19T04:51:55;4.83;79.77
65584;DHT22;62116;43.582;1.470;2023-01-19T04:54:21;4.84;79.91
65584;DHT22;62116;43.582;1.470;2023-01-19T04:56:46;4.84;80.02
65584;DHT22;62116;43.582;1.470;2023-01-19T04:59:12;4.83;79.95
65584;DHT22;62116;43.582;1.470;2023-01-19T05:01:38;4.88;79.73
65584;DHT22;62116;43.582;1.470;2023-01-19T05:04:03;4.88;79.91
65584;DHT22;62116;43.582;1.470;2023-01-19T05:06:31;4.87;79.23
65584;DHT22;62116;43.582;1.470;2023-01-19T05:08:57;4.89;79.48
65584;DHT22;62116;43.582;1.470;2023-01-19T05:11:22;4.88;79.48
65584;DHT22;62116;43.582;1.470;2023-01-19T05:13:48;4.88;79.27
65584;DHT22;62116;43.582;1.470;2023-01-19T05:16:13;4.89;79.31
65584;DHT22;62116;43.582;1.470;2023-01-19T05:18:39;4.87;79.16
65584;DHT22;62116;43.582;1.470;2023-01-19T05:21:06;4.84;79.24
65584;DHT22;62116;43.582;1.470;2023-01-19T05:23:32;4.83;79.32
65584;DHT22;62116;43.582;1.470;2023-01-19T05:25:58;4.83;79.40
65584;DHT22;62116;43.582;1.470;2023-01-19T05:28:28;4.80;79.14
65584;DHT22;62116;43.582;1.470;2023-01-19T05:30:54;4.77;79.33
65584;DHT22;62116;43.582;1.470;2023-01-19T05:33:20;4.75;79.37
65584;DHT22;62116;43.582;1.470;2023-01-19T05:35:48;4.74;79.53
65584;DHT22;62116;43.582;1.470;2023-01-19T05:38:14;4.73;79.49
65584;DHT22;62116;43.582;1.470;2023-01-19T05:40:39;4.71;79.54
65584;DHT22;62116;43.582;1.470;2023-01-19T05:43:05;4.73;79.46
65584;DHT22;62116;43.582;1.470;2023-01-19T05:45:31;4.73;79.14
65584;DHT22;62116;43.582;1.470;2023-01-19T05:47:56;4.68;79.51
65584;DHT22;62116;43.582;1.470;2023-01-19T05:50:22;4.70;79.43
65584;DHT22;62116;43.582;1.470;2023-01-19T05:52:47;4.71;79.58
65584;DHT22;62116;43.582;1.470;2023-01-19T05:55:13;4.74;79.44
65584;DHT22;62116;43.582;1.470;2023-01-19T05:57:38;4.70;79.28
65584;DHT22;62116;43.582;1.470;2023-01-19T06:00:04;4.73;79.49
65584;DHT22;62116;43.582;1.470;2023-01-19T06:02:30;4.74;79.71
65584;DHT22;62116;43.582;1.470;2023-01-19T06:04:55;4.74;79.63
65584;DHT22;62116;43.582;1.470;2023-01-19T06:07:21;4.74;79.58
65584;DHT22;62116;43.582;1.470;2023-01-19T06:09:46;4.73;79.70
65584;DHT22;62116;43.582;1.470;2023-01-19T06:12:12;4.74;79.53
65584;DHT22;62116;43.582;1.470;2023-01-19T06:14:37;4.73;79.65
65584;DHT22;62116;43.582;1.470;2023-01-19T06:17:03;4.74;79.74
65584;DHT22;62116;43.582;1.470;2023-01-19T06:19:31;4.73;79.91
65584;DHT22;62116;43.582;1.470;2023-01-19T06:21:56;4.73;79.84
65584;DHT22;62116;43.582;1.470;2023-01-19T06:24:22;4.75;79.92
65584;DHT22;62116;43.582;1.470;2023-01-19T06:26:49;4.73;80.10
65584;DHT22;62116;43.582;1.470;2023-01-19T06:29:15;4.73;80.02
65584;DHT22;62116;43.582;1.470;2023-01-19T06:31:40;4.73;79.97
65584;DHT22;62116;43.582;1.470;2023-01-19T06:34:06;4.71;80.18
65584;DHT22;62116;43.582;1.470;2023-01-19T06:36:31;4.74;80.11
65584;DHT22;62116;43.582;1.470;2023-01-19T06:38:57;4.75;80.12
65584;DHT22;62116;43.582;1.470;2023-01-19T06:41:23;4.77;80.13
65584;DHT22;62116;43.582;1.470;2023-01-19T06:43:48;4.75;79.94
65584;DHT22;62116;43.582;1.470;2023-01-19T06:46:13;4.74;79.99
65584;DHT22;62116;43.582;1.470;2023-01-19T06:48:39;4.75;80.36
65584;DHT22;62116;43.582;1.470;2023-01-19T06:51:04;4.75;80.11
65584;DHT22;62116;43.582;1.470;2023-01-19T06:53:31;4.73;79.89
65584;DHT22;62116;43.582;1.470;2023-01-19T06:55:58;4.75;80.01
65584;DHT22;62116;43.582;1.470;2023-01-19T06:58:25;4.71;80.00
65584;DHT22;62116;43.582;1.470;2023-01-19T07:00:51;4.71;80.08
65584;DHT22;62116;43.582;1.470;2023-01-19T07:03:18;4.73;80.15
65584;DHT22;62116;43.582;1.470;2023-01-19T07:05:44;4.75;80.28
65584;DHT22;62116;43.582;1.470;2023-01-19T07:08:09;4.78;80.01
65584;DHT22;62116;43.582;1.470;2023-01-19T07:10:35;4.74;79.85
65584;DHT22;62116;43.582;1.470;2023-01-19T07:13:01;4.74;80.35
65584;DHT22;62116;43.582;1.470;2023-01-19T07:15:27;4.74;80.25
65584;DHT22;62116;43.582;1.470;2023-01-19T07:17:52;4.77;80.29
65584;DHT22;62116;43.582;1.470;2023-01-19T07:20:17;4.80;80.14
65584;DHT22;62116;43.582;1.470;2023-01-19T07:22:44;4.75;80.11
65584;DHT22;62116;43.582;1.470;2023-01-19T07:25:11;4.74;80.60
65584;DHT22;62116;43.582;1.470;2023-01-19T07:27:37;4.80;80.28
65584;DHT22;62116;43.582;1.470;2023-01-19T07:30:03;4.77;80.18
65584;DHT22;62116;43.582;1.470;2023-01-19T07:32:28;4.78;80.31
65584;DHT22;62116;43.582;1.470;2023-01-19T07:34:54;4.85;80.09
65584;DHT22;62116;43.582;1.470;2023-01-19T07:37:19;4.85;79.99
65584;DHT22;62116;43.582;1.470;2023-01-19T07:39:45;4.84;79.78
65584;DHT22;62116;43.582;1.470;2023-01-19T07:42:10;4.83;79.91
65584;DHT22;62116;43.582;1.470;2023-01-19T07:44:36;4.84;80.14
65584;DHT22;62116;43.582;1.470;2023-01-19T07:47:02;4.85;80.25
65584;DHT22;62116;43.582;1.470;2023-01-19T07:49:27;4.92;80.02
65584;DHT22;62116;43.582;1.470;2023-01-19T07:51:53;4.95;80.01
65584;DHT22;62116;43.582;1.470;2023-01-19T07:54:20;4.98;80.07
65584;DHT22;62116;43.582;1.470;2023-01-19T07:56:46;5.01;79.44
65584;DHT22;62116;43.582;1.470;2023-01-19T07:59:11;5.05;79.43
65584;DHT22;62116;43.582;1.470;2023-01-19T08:01:37;5.02;79.29
65584;DHT22;62116;43.582;1.470;2023-01-19T08:04:02;5.01;79.56
65584;DHT22;62116;43.582;1.470;2023-01-19T08:06:36;5.04;79.75
65584;DHT22;62116;43.582;1.470;2023-01-19T08:09:03;5.07;79.53
65584;DHT22;62116;43.582;1.470;2023-01-19T08:11:31;5.09;79.66
65584;DHT22;62116;43.582;1.470;2023-01-19T08:13:57;5.07;79.55
65584;DHT22;62116;43.582;1.470;2023-01-19T08:16:22;5.09;79.67
65584;DHT22;62116;43.582;1.470;2023-01-19T08:18:48;5.15;79.80
65584;DHT22;62116;43.582;1.470;2023-01-19T08:21:13;5.16;79.65
65584;DHT22;62116;43.582;1.470;2023-01-19T08:23:39;5.18;79.38
65584;DHT22;62116;43.582;1.470;2023-01-19T08:26:36;5.25;79.07
65584;DHT22;62116;43.582;1.470;2023-01-19T08:29:04;5.24;79.07
65584;DHT22;62116;43.582;1.470;2023-01-19T08:31:30;5.28;78.96
65584;DHT22;62116;43.582;1.470;2023-01-19T08:33:55;5.29;79.05
65584;DHT22;62116;43.582;1.470;2023-01-19T08:36:21;5.32;79.06
65584;DHT22;62116;43.582;1.470;2023-01-19T08:38:47;5.40;78.70
65584;DHT22;62116;43.582;1.470;2023-01-19T08:41:13;5.43;78.66
65584;DHT22;62116;43.582;1.470;2023-01-19T08:43:40;5.49;78.64
65584;DHT22;62116;43.582;1.470;2023-01-19T08:46:06;5.56;78.25
65584;DHT22;62116;43.582;1.470;2023-01-19T08:48:31;5.62;78.14
65584;DHT22;62116;43.582;1.470;2023-01-19T08:50:56;5.63;77.82
65584;DHT22;62116;43.582;1.470;2023-01-19T08:53:23;5.69;78.04
65584;DHT22;62116;43.582;1.470;2023-01-19T08:55:52;5.72;77.96
65584;DHT22;62116;43.582;1.470;2023-01-19T08:58:18;5.73;77.81
65584;DHT22;62116;43.582;1.470;2023-01-19T09:00:43;5.74;77.69
65584;DHT22;62116;43.582;1.470;2023-01-19T09:03:10;5.82;77.59
65584;DHT22;62116;43.582;1.470;2023-01-19T09:05:37;5.89;77.31
65584;DHT22;62116;43.582;1.470;2023-01-19T09:08:06;5.94;77.15
65584;DHT22;62116;43.582;1.470;2023-01-19T09:10:32;5.94;77.27
65584;DHT22;62116;43.582;1.470;2023-01-19T09:13:04;6.02;77.21
65584;DHT22;62116;43.582;1.470;2023-01-19T09:15:32;6.20;77.17
65584;DHT22;62116;43.582;1.470;2023-01-19T09:18:00;6.59;76.23
65584;DHT22;62116;43.582;1.470;2023-01-19T09:20:26;6.74;75.98
65584;DHT22;62116;43.582;1.470;2023-01-19T09:22:57;6.78;75.79
65584;DHT22;62116;43.582;1.470;2023-01-19T09:25:23;6.96;74.80
65584;DHT22;62116;43.582;1.470;2023-01-19T09:27:49;7.18;74.36
65584;DHT22;62116;43.582;1.470;2023-01-19T09:30:14;7.20;74.46
65584;DHT22;62116;43.582;1.470;2023-01-19T09:32:41;7.23;74.54
65584;DHT22;62116;43.582;1.470;2023-01-19T09:35:07;7.29;73.81
65584;DHT22;62116;43.582;1.470;2023-01-19T09:37:32;7.29;73.71
65584;DHT22;62116;43.582;1.470;2023-01-19T09:39:58;7.29;73.20
65584;DHT22;62116;43.582;1.470;2023-01-19T09:44:59;7.42;73.06
65584;DHT22;62116;43.582;1.470;2023-01-19T09:47:27;7.57;73.10
65584;DHT22;62116;43.582;1.470;2023-01-19T09:50:11;7.91;72.65
65584;DHT22;62116;43.582;1.470;2023-01-19T09:52:40;8.04;71.76
65584;DHT22;62116;43.582;1.470;2023-01-19T09:55:19;7.98;71.65
65584;DHT22;62116;43.582;1.470;2023-01-19T09:57:45;7.99;71.17
65584;DHT22;62116;43.582;1.470;2023-01-19T10:00:15;7.98;71.35
65584;DHT22;62116;43.582;1.470;2023-01-19T10:02:51;7.93;71.34
65584;DHT22;62116;43.582;1.470;2023-01-19T10:05:26;7.95;71.90
65584;DHT22;62116;43.582;1.470;2023-01-19T10:10:44;8.05;71.58
65584;DHT22;62116;43.582;1.470;2023-01-19T10:16:25;8.02;71.27
65584;DHT22;62116;43.582;1.470;2023-01-19T10:18:56;8.05;71.38
65584;DHT22;62116;43.582;1.470;2023-01-19T10:21:25;7.98;70.95
65584;DHT22;62116;43.582;1.470;2023-01-19T10:24:00;7.93;71.42
65584;DHT22;62116;43.582;1.470;2023-01-19T10:26:33;7.87;71.38
65584;DHT22;62116;43.582;1.470;2023-01-19T10:29:35;7.83;71.48
65584;DHT22;62116;43.582;1.470;2023-01-19T10:32:12;7.80;71.99
65584;DHT22;62116;43.582;1.470;2023-01-19T10:34:38;7.78;71.97
65584;DHT22;62116;43.582;1.470;2023-01-19T10:37:24;7.74;72.08
65584;DHT22;62116;43.582;1.470;2023-01-19T10:39:55;7.64;72.30
65584;DHT22;62116;43.582;1.470;2023-01-19T10:42:21;7.70;72.48
65584;DHT22;62116;43.582;1.470;2023-01-19T10:44:48;7.70;72.47
65584;DHT22;62116;43.582;1.470;2023-01-19T10:47:19;7.73;72.51
65584;DHT22;62116;43.582;1.470;2023-01-19T10:49:45;7.73;72.59
65584;DHT22;62116;43.582;1.470;2023-01-19T10:52:29;7.71;72.22
65584;DHT22;62116;43.582;1.470;2023-01-19T10:54:56;7.70;72.55
65584;DHT22;62116;43.582;1.470;2023-01-19T10:57:31;7.67;72.78
65584;DHT22;62116;43.582;1.470;2023-01-19T10:59:58;7.64;72.36
65584;DHT22;62116;43.582;1.470;2023-01-19T11:02:26;7.63;73.22
65584;DHT22;62116;43.582;1.470;2023-01-19T11:04:58;7.64;72.76
65584;DHT22;62116;43.582;1.470;2023-01-19T11:07:31;7.64;72.87
65584;DHT22;62116;43.582;1.470;2023-01-19T11:15:23;7.63;72.97
65584;DHT22;62116;43.582;1.470;2023-01-19T11:17:50;7.60;73.53
65584;DHT22;62116;43.582;1.470;2023-01-19T11:20:28;7.67;73.27
65584;DHT22;62116;43.582;1.470;2023-01-19T11:23:34;7.69;73.36
65584;DHT22;62116;43.582;1.470;2023-01-19T11:26:06;7.63;72.91
65584;DHT22;62116;43.582;1.470;2023-01-19T11:28:46;7.63;73.20
65584;DHT22;62116;43.582;1.470;2023-01-19T11:33:50;7.66;73.50
65584;DHT22;62116;43.582;1.470;2023-01-19T11:36:19;7.66;73.60
65584;DHT22;62116;43.582;1.470;2023-01-19T11:38:47;7.70;72.92
65584;DHT22;62116;43.582;1.470;2023-01-19T11:41:18;7.69;73.50
65584;DHT22;62116;43.582;1.470;2023-01-19T11:43:45;7.76;73.64
65584;DHT22;62116;43.582;1.470;2023-01-19T11:46:12;7.74;73.84
65584;DHT22;62116;43.582;1.470;2023-01-19T11:48:59;7.73;73.44
65584;DHT22;62116;43.582;1.470;2023-01-19T11:51:41;7.78;73.05
65584;DHT22;62116;43.582;1.470;2023-01-19T11:54:22;7.73;73.26
65584;DHT22;62116;43.582;1.470;2023-01-19T11:56:49;7.76;73.48
65584;DHT22;62116;43.582;1.470;2023-01-19T11:59:17;7.77;73.58
65584;DHT22;62116;43.582;1.470;2023-01-19T12:01:52;7.81;73.27
65584;DHT22;62116;43.582;1.470;2023-01-19T12:06:55;7.81;72.87
65584;DHT22;62116;43.582;1.470;2023-01-19T12:09:25;7.78;72.54
65584;DHT22;62116;43.582;1.470;2023-01-19T12:12:02;7.78;72.63
65584;DHT22;62116;43.582;1.470;2023-01-19T12:17:32;7.80;72.64
65584;DHT22;62116;43.582;1.470;2023-01-19T12:20:04;7.80;72.56
65584;DHT22;62116;43.582;1.470;2023-01-19T12:22:38;7.77;72.41
65584;DHT22;62116;43.582;1.470;2023-01-19T12:25:23;7.78;72.63
65584;DHT22;62116;43.582;1.470;2023-01-19T12:27:51;7.86;72.96
65584;DHT22;62116;43.582;1.470;2023-01-19T12:30:20;7.80;72.89
65584;DHT22;62116;43.582;1.470;2023-01-19T12:32:47;7.80;73.26
65584;DHT22;62116;43.582;1.470;2023-01-19T12:38:44;7.81;72.40
65584;DHT22;62116;43.582;1.470;2023-01-19T12:41:21;7.77;70.81
65584;DHT22;62116;43.582;1.470;2023-01-19T12:44:12;7.80;70.38
65584;DHT22;62116;43.582;1.470;2023-01-19T12:46:33;7.76;71.11
65584;DHT22;62116;43.582;1.470;2023-01-19T12:52:32;7.73;71.20
65584;DHT22;62116;43.582;1.470;2023-01-19T12:55:05;7.71;71.23
65584;DHT22;62116;43.582;1.470;2023-01-19T12:57:32;7.73;71.89
65584;DHT22;62116;43.582;1.470;2023-01-19T13:00:07;7.74;70.35
65584;DHT22;62116;43.582;1.470;2023-01-19T13:02:53;7.71;70.47
65584;DHT22;62116;43.582;1.470;2023-01-19T13:18:51;7.66;71.36
65584;DHT22;62116;43.582;1.470;2023-01-19T13:24:02;7.67;72.02
65584;DHT22;62116;43.582;1.470;2023-01-19T13:29:05;7.70;72.32
65584;DHT22;62116;43.582;1.470;2023-01-19T13:31:36;7.67;73.07
65584;DHT22;62116;43.582;1.470;2023-01-19T13:34:02;7.73;73.18
65584;DHT22;62116;43.582;1.470;2023-01-19T13:36:29;7.73;73.28
65584;DHT22;62116;43.582;1.470;2023-01-19T13:38:56;7.73;73.03
65584;DHT22;62116;43.582;1.470;2023-01-19T13:41:26;7.71;73.47
65584;DHT22;62116;43.582;1.470;2023-01-19T13:44:00;7.71;73.86
65584;DHT22;62116;43.582;1.470;2023-01-19T13:46:27;7.70;74.16
65584;DHT22;62116;43.582;1.470;2023-01-19T13:49:02;7.76;74.88
65584;DHT22;62116;43.582;1.470;2023-01-19T13:51:28;7.73;74.85
65584;DHT22;62116;43.582;1.470;2023-01-19T13:53:55;7.70;75.75
65584;DHT22;62116;43.582;1.470;2023-01-19T13:56:22;7.59;75.36
65584;DHT22;62116;43.582;1.470;2023-01-19T13:59:10;7.52;76.36
65584;DHT22;62116;43.582;1.470;2023-01-19T14:01:39;7.50;77.17
65584;DHT22;62116;43.582;1.470;2023-01-19T14:04:04;7.49;77.02
65584;DHT22;62116;43.582;1.470;2023-01-19T14:06:43;7.49;77.60
65584;DHT22;62116;43.582;1.470;2023-01-19T14:09:14;7.50;77.43
65584;DHT22;62116;43.582;1.470;2023-01-19T14:11:44;7.52;78.12
65584;DHT22;62116;43.582;1.470;2023-01-19T14:14:26;7.54;78.38
65584;DHT22;62116;43.582;1.470;2023-01-19T14:16:52;7.53;78.19
65584;DHT22;62116;43.582;1.470;2023-01-19T14:19:17;7.54;77.60
65584;DHT22;62116;43.582;1.470;2023-01-19T14:21:42;7.50;77.09
65584;DHT22;62116;43.582;1.470;2023-01-19T14:26:46;7.46;77.03
65584;DHT22;62116;43.582;1.470;2023-01-19T14:29:17;7.43;77.40
65584;DHT22;62116;43.582;1.470;2023-01-19T14:31:43;7.47;77.94
65584;DHT22;62116;43.582;1.470;2023-01-19T14:34:31;7.43;77.65
65584;DHT22;62116;43.582;1.470;2023-01-19T14:36:58;7.43;78.03
65584;DHT22;62116;43.582;1.470;2023-01-19T14:39:26;7.43;78.81
65584;DHT22;62116;43.582;1.470;2023-01-19T14:41:52;7.42;78.45
65584;DHT22;62116;43.582;1.470;2023-01-19T14:44:25;7.40;78.35
65584;DHT22;62116;43.582;1.470;2023-01-19T14:46:53;7.37;78.36
65584;DHT22;62116;43.582;1.470;2023-01-19T14:51:53;7.37;79.23
65584;DHT22;62116;43.582;1.470;2023-01-19T14:54:28;7.39;79.38
65584;DHT22;62116;43.582;1.470;2023-01-19T14:56:55;7.34;78.96
65584;DHT22;62116;43.582;1.470;2023-01-19T14:59:21;7.36;79.55
65584;DHT22;62116;43.582;1.470;2023-01-19T15:01:46;7.36;79.91
65584;DHT22;62116;43.582;1.470;2023-01-19T15:04:11;7.33;79.69
65584;DHT22;62116;43.582;1.470;2023-01-19T15:06:40;7.33;80.01
65584;DHT22;62116;43.582;1.470;2023-01-19T15:09:12;7.30;78.47
65584;DHT22;62116;43.582;1.470;2023-01-19T15:11:38;7.26;78.63
65584;DHT22;62116;43.582;1.470;2023-01-19T15:14:04;7.26;78.24
65584;DHT22;62116;43.582;1.470;2023-01-19T15:16:31;7.22;78.38
65584;DHT22;62116;43.582;1.470;2023-01-19T15:18:58;7.15;78.26
65584;DHT22;62116;43.582;1.470;2023-01-19T15:21:24;7.13;78.88
65584;DHT22;62116;43.582;1.470;2023-01-19T15:23:51;7.13;78.69
65584;DHT22;62116;43.582;1.470;2023-01-19T15:26:22;7.09;79.07
65584;DHT22;62116;43.582;1.470;2023-01-19T15:28:48;7.08;79.35
65584;DHT22;62116;43.582;1.470;2023-01-19T15:31:15;7.06;78.04
65584;DHT22;62116;43.582;1.470;2023-01-19T15:33:42;7.03;78.73
65584;DHT22;62116;43.582;1.470;2023-01-19T15:36:18;6.98;79.06
65584;DHT22;62116;43.582;1.470;2023-01-19T15:38:44;6.98;79.17
65584;DHT22;62116;43.582;1.470;2023-01-19T15:41:22;6.96;79.36
65584;DHT22;62116;43.582;1.470;2023-01-19T15:43:49;6.88;79.65
65584;DHT22;62116;43.582;1.470;2023-01-19T15:46:17;6.89;79.42
65584;DHT22;62116;43.582;1.470;2023-01-19T15:48:42;6.87;80.09
65584;DHT22;62116;43.582;1.470;2023-01-19T15:51:11;6.88;80.48
65584;DHT22;62116;43.582;1.470;2023-01-19T15:53:38;6.84;80.10
65584;DHT22;62116;43.582;1.470;2023-01-19T15:56:04;6.81;79.98
65584;DHT22;62116;43.582;1.470;2023-01-19T15:58:29;6.78;79.68
65584;DHT22;62116;43.582;1.470;2023-01-19T16:00:56;6.69;79.91
65584;DHT22;62116;43.582;1.470;2023-01-19T16:03:23;6.69;80.30
65584;DHT22;62116;43.582;1.470;2023-01-19T16:05:48;6.68;80.54
65584;DHT22;62116;43.582;1.470;2023-01-19T16:08:14;6.63;80.48
65584;DHT22;62116;43.582;1.470;2023-01-19T16:10:40;6.64;80.02
65584;DHT22;62116;43.582;1.470;2023-01-19T16:13:06;6.61;79.87
65584;DHT22;62116;43.582;1.470;2023-01-19T16:15:36;6.59;80.37
65584;DHT22;62116;43.582;1.470;2023-01-19T16:18:03;6.59;80.25
65584;DHT22;62116;43.582;1.470;2023-01-19T16:20:29;6.49;80.69
65584;DHT22;62116;43.582;1.470;2023-01-19T16:22:55;6.51;80.47
65584;DHT22;62116;43.582;1.470;2023-01-19T16:25:20;6.40;81.03
65584;DHT22;62116;43.582;1.470;2023-01-19T16:27:48;6.27;81.53
65584;DHT22;62116;43.582;1.470;2023-01-19T16:30:13;6.33;81.68
65584;DHT22;62116;43.582;1.470;2023-01-19T16:32:40;6.23;82.35
65584;DHT22;62116;43.582;1.470;2023-01-19T16:35:06;6.21;81.67
65584;DHT22;62116;43.582;1.470;2023-01-19T16:37:31;6.14;81.26
65584;DHT22;62116;43.582;1.470;2023-01-19T16:39:57;6.07;81.59
65584;DHT22;62116;43.582;1.470;2023-01-19T16:42:22;6.03;81.86
65584;DHT22;62116;43.582;1.470;2023-01-19T16:44:47;6.02;81.53
65584;DHT22;62116;43.582;1.470;2023-01-19T16:47:13;6.02;81.66
65584;DHT22;62116;43.582;1.470;2023-01-19T16:49:38;6.03;81.74
65584;DHT22;62116;43.582;1.470;2023-01-19T16:52:04;6.00;82.30
65584;DHT22;62116;43.582;1.470;2023-01-19T16:54:30;5.99;82.01
65584;DHT22;62116;43.582;1.470;2023-01-19T16:56:56;5.96;81.77
65584;DHT22;62116;43.582;1.470;2023-01-19T16:59:22;5.94;81.79
65584;DHT22;62116;43.582;1.470;2023-01-19T17:01:49;5.90;82.22
65584;DHT22;62116;43.582;1.470;2023-01-19T17:04:15;5.82;82.74
65584;DHT22;62116;43.582;1.470;2023-01-19T17:06:56;5.86;82.99